createdAt,value
2023-05-01T00:01:50.592Z,4.58
2023-05-01T00:04:16.990Z,4.60
2023-05-01T00:06:43.484Z,4.56
2023-05-01T00:09:09.758Z,4.26
2023-05-01T00:11:35.989Z,4.40
2023-05-01T00:14:02.189Z,4.48
2023-05-01T00:16:28.464Z,4.61
2023-05-01T00:18:54.756Z,4.59
2023-05-01T00:21:20.984Z,4.73
2023-05-01T00:23:47.178Z,4.75
2023-05-01T00:26:13.378Z,4.81
2023-05-01T00:28:39.589Z,4.85
2023-05-01T00:31:05.809Z,4.89
2023-05-01T00:33:32.008Z,4.82
2023-05-01T00:35:59.187Z,4.79
2023-05-01T00:38:25.428Z,4.77
2023-05-01T00:40:51.650Z,4.60
2023-05-01T00:43:17.872Z,4.48
2023-05-01T00:45:44.510Z,4.56
2023-05-01T00:48:11.012Z,4.57
2023-05-01T00:50:37.409Z,4.46
2023-05-01T00:53:03.611Z,4.26
2023-05-01T00:55:29.979Z,4.26
2023-05-01T00:57:56.196Z,4.28
2023-05-01T01:00:22.417Z,4.24
2023-05-01T01:02:48.897Z,4.26
2023-05-01T01:05:15.139Z,4.48
2023-05-01T01:07:47.685Z,4.47
2023-05-01T01:10:16.300Z,4.45
2023-05-01T01:12:46.374Z,4.27
2023-05-01T01:15:29.212Z,4.20
2023-05-01T01:18:07.739Z,4.19
2023-05-01T01:20:37.746Z,3.93
2023-05-01T01:23:11.308Z,3.88
2023-05-01T01:25:37.459Z,4.02
2023-05-01T01:28:10.766Z,4.21
2023-05-01T01:30:45.625Z,4.34
2023-05-01T01:33:24.040Z,4.44
2023-05-01T01:35:56.603Z,4.32
2023-05-01T01:38:24.821Z,4.40
2023-05-01T01:40:50.972Z,4.44
2023-05-01T01:43:17.182Z,4.35
2023-05-01T01:45:43.596Z,4.33
2023-05-01T01:48:12.975Z,4.41
2023-05-01T01:50:39.217Z,4.08
2023-05-01T01:53:05.569Z,3.97
2023-05-01T01:55:31.757Z,3.94
2023-05-01T01:57:57.960Z,3.98
2023-05-01T02:00:24.167Z,4.04
2023-05-01T02:02:50.420Z,4.07
2023-05-01T02:05:16.924Z,4.16
2023-05-01T02:07:43.336Z,4.15
2023-05-01T02:10:09.632Z,4.17
2023-05-01T02:12:35.853Z,4.20
2023-05-01T02:15:02.083Z,4.28
2023-05-01T02:17:28.656Z,4.31
2023-05-01T02:19:55.593Z,4.39
2023-05-01T02:22:22.267Z,4.42
2023-05-01T02:24:48.611Z,4.45
2023-05-01T02:27:22.909Z,4.51
2023-05-01T02:29:49.155Z,4.46
2023-05-01T02:32:15.362Z,4.41
2023-05-01T02:34:41.573Z,4.44
2023-05-01T02:37:07.845Z,4.47
2023-05-01T02:39:34.394Z,4.49
2023-05-01T02:42:00.608Z,4.52
2023-05-01T02:44:26.808Z,4.52
2023-05-01T02:46:53.043Z,4.68
2023-05-01T02:49:19.317Z,4.76
2023-05-01T02:51:45.701Z,4.87
2023-05-01T02:54:12.373Z,4.85
2023-05-01T02:56:38.588Z,4.89
2023-05-01T02:59:04.792Z,4.87
2023-05-01T03:01:31.050Z,4.90
2023-05-01T03:03:57.339Z,4.88
2023-05-01T03:06:23.622Z,4.87
2023-05-01T03:08:51.037Z,4.96
2023-05-01T03:11:17.268Z,4.98
2023-05-01T03:13:43.527Z,4.97
2023-05-01T03:16:09.799Z,4.96
2023-05-01T03:18:36.040Z,4.92
2023-05-01T03:21:02.259Z,4.89
2023-05-01T03:23:28.469Z,4.86
2023-05-01T03:25:54.696Z,4.83
2023-05-01T03:28:20.925Z,4.78
2023-05-01T03:30:47.157Z,4.84
2023-05-01T03:33:13.444Z,4.87
2023-05-01T03:35:39.701Z,4.81
2023-05-01T03:38:05.958Z,4.83
2023-05-01T03:40:32.276Z,4.84
2023-05-01T03:42:58.482Z,4.80
2023-05-01T03:45:24.692Z,4.94
2023-05-01T03:47:51.038Z,4.94
2023-05-01T03:50:17.314Z,4.91
2023-05-01T03:52:43.519Z,4.92
2023-05-01T03:55:09.779Z,5.05
2023-05-01T03:57:35.996Z,5.11
2023-05-01T04:00:02.229Z,5.16
2023-05-01T04:02:28.611Z,5.25
2023-05-01T04:04:54.895Z,5.31
2023-05-01T04:07:21.144Z,5.34
2023-05-01T04:09:47.344Z,5.41
2023-05-01T04:12:13.555Z,5.41
2023-05-01T04:14:39.748Z,5.42
2023-05-01T04:17:05.974Z,5.49
2023-05-01T04:19:32.189Z,5.58
2023-05-01T04:21:58.402Z,5.69
2023-05-01T04:24:24.607Z,5.75
2023-05-01T04:26:50.825Z,5.76
2023-05-01T04:29:17.022Z,5.81
2023-05-01T04:31:43.414Z,5.86
2023-05-01T04:34:09.684Z,6.02
2023-05-01T04:36:35.895Z,6.14
2023-05-01T04:39:02.109Z,6.28
2023-05-01T04:41:28.321Z,6.34
2023-05-01T04:43:54.545Z,6.39
2023-05-01T04:46:20.807Z,6.54
2023-05-01T04:48:47.034Z,6.78
2023-05-01T04:51:13.235Z,7.08
2023-05-01T04:53:39.440Z,7.30
2023-05-01T04:56:05.697Z,7.80
2023-05-01T04:58:31.887Z,8.27
2023-05-01T05:00:58.097Z,8.39
2023-05-01T05:03:24.412Z,8.57
2023-05-01T05:05:50.675Z,8.67
2023-05-01T05:08:16.907Z,8.87
2023-05-01T05:10:43.131Z,8.95
2023-05-01T05:13:09.326Z,9.12
2023-05-01T05:15:35.551Z,9.33
2023-05-01T05:18:01.789Z,9.57
2023-05-01T05:20:28.005Z,9.50
2023-05-01T05:22:54.313Z,9.84
2023-05-01T05:25:20.543Z,10.15
2023-05-01T05:27:46.747Z,10.69
2023-05-01T05:30:12.960Z,11.53
2023-05-01T05:32:39.213Z,12.32
2023-05-01T05:35:06.011Z,12.49
2023-05-01T05:37:32.790Z,12.48
2023-05-01T05:39:59.137Z,12.55
2023-05-01T05:42:25.478Z,12.30
2023-05-01T05:44:51.824Z,12.31
2023-05-01T05:47:18.176Z,12.54
2023-05-01T05:49:44.596Z,12.68
2023-05-01T05:52:10.946Z,12.86
2023-05-01T05:54:37.282Z,13.40
2023-05-01T05:57:03.682Z,13.94
2023-05-01T05:59:30.029Z,14.36
2023-05-01T06:01:56.380Z,14.97
2023-05-01T06:04:22.785Z,14.58
2023-05-01T06:06:49.235Z,14.78
2023-05-01T06:09:15.599Z,14.57
2023-05-01T06:11:41.971Z,14.61
2023-05-01T06:14:08.315Z,14.47
2023-05-01T06:16:34.783Z,14.39
2023-05-01T06:19:01.216Z,14.76
2023-05-01T06:21:27.593Z,15.12
2023-05-01T06:23:53.948Z,15.23
2023-05-01T06:26:20.316Z,15.44
2023-05-01T06:28:46.660Z,15.32
2023-05-01T06:31:13.037Z,15.27
2023-05-01T06:33:39.457Z,15.20
2023-05-01T06:36:05.957Z,15.32
2023-05-01T06:38:32.365Z,15.71
2023-05-01T06:40:58.903Z,15.47
2023-05-01T06:43:25.262Z,15.64
2023-05-01T06:45:51.617Z,15.96
2023-05-01T06:48:17.975Z,16.20
2023-05-01T06:50:44.328Z,16.23
2023-05-01T06:53:10.672Z,16.10
2023-05-01T06:55:37.012Z,16.41
2023-05-01T06:58:16.032Z,16.22
2023-05-01T07:00:48.698Z,16.20
2023-05-01T07:03:15.130Z,16.66
2023-05-01T07:05:41.533Z,16.71
2023-05-01T07:08:07.894Z,16.62
2023-05-01T07:10:34.251Z,16.29
2023-05-01T07:13:00.607Z,16.20
2023-05-01T07:15:26.967Z,16.21
2023-05-01T07:17:53.354Z,16.24
2023-05-01T07:20:19.882Z,16.40
2023-05-01T07:22:46.218Z,16.77
2023-05-01T07:25:12.567Z,16.93
2023-05-01T07:27:38.926Z,16.90
2023-05-01T07:30:06.062Z,16.00
2023-05-01T07:32:32.470Z,16.47
2023-05-01T07:34:58.916Z,16.59
2023-05-01T07:37:25.417Z,16.75
2023-05-01T07:39:51.758Z,17.23
2023-05-01T07:42:18.208Z,17.35
2023-05-01T07:44:44.627Z,16.68
2023-05-01T07:47:10.985Z,16.79
2023-05-01T07:49:37.754Z,17.30
2023-05-01T07:52:04.796Z,17.51
2023-05-01T07:54:31.132Z,17.25
2023-05-01T07:56:57.466Z,16.88
2023-05-01T07:59:23.834Z,17.36
2023-05-01T08:01:50.175Z,17.84
2023-05-01T08:04:16.554Z,18.10
2023-05-01T08:06:43.048Z,18.05
2023-05-01T08:09:09.304Z,18.11
2023-05-01T08:11:35.502Z,17.90
2023-05-01T08:14:01.711Z,18.06
2023-05-01T08:16:27.976Z,17.68
2023-05-01T08:18:54.222Z,18.00
2023-05-01T08:21:20.438Z,17.25
2023-05-01T08:23:46.662Z,17.66
2023-05-01T08:26:12.858Z,18.34
2023-05-01T08:28:39.081Z,18.41
2023-05-01T08:31:05.322Z,18.45
2023-05-01T08:33:31.571Z,18.50
2023-05-01T08:35:57.798Z,18.91
2023-05-01T08:38:24.029Z,18.84
2023-05-01T08:40:51.314Z,18.66
2023-05-01T08:43:17.536Z,18.30
2023-05-01T08:45:43.739Z,18.22
2023-05-01T08:48:10.090Z,18.34
2023-05-01T08:50:36.475Z,18.65
2023-05-01T08:53:02.807Z,18.54
2023-05-01T08:55:29.018Z,18.84
2023-05-01T08:57:55.269Z,19.22
2023-05-01T09:00:21.636Z,18.73
2023-05-01T09:02:48.200Z,18.77
2023-05-01T09:05:15.509Z,18.94
2023-05-01T09:07:42.261Z,18.62
2023-05-01T09:10:08.508Z,18.48
2023-05-01T09:12:34.702Z,18.71
2023-05-01T09:15:02.124Z,18.43
2023-05-01T09:17:28.385Z,18.47
2023-05-01T09:19:54.790Z,18.34
2023-05-01T09:22:21.165Z,18.40
2023-05-01T09:24:47.383Z,18.86
2023-05-01T09:27:13.597Z,18.90
2023-05-01T09:29:46.538Z,18.50
2023-05-01T09:32:15.789Z,19.12
2023-05-01T09:34:42.454Z,19.33
2023-05-01T09:37:08.852Z,19.29
2023-05-01T09:39:35.063Z,19.17
2023-05-01T09:42:01.283Z,18.93
2023-05-01T09:44:27.486Z,18.86
2023-05-01T09:46:53.699Z,18.89
2023-05-01T09:49:19.897Z,18.57
2023-05-01T09:51:46.185Z,19.10
2023-05-01T09:54:18.970Z,19.25
2023-05-01T09:56:48.519Z,18.80
2023-05-01T09:59:15.541Z,18.15
2023-05-01T10:01:42.486Z,18.28
2023-05-01T10:04:15.923Z,18.72
2023-05-01T10:06:42.621Z,18.55
2023-05-01T10:09:11.477Z,18.50
2023-05-01T10:11:47.191Z,18.80
2023-05-01T10:14:13.427Z,18.88
2023-05-01T10:16:39.685Z,19.24
2023-05-01T10:19:05.937Z,19.41
2023-05-01T10:21:32.295Z,19.57
2023-05-01T10:23:58.505Z,19.35
2023-05-01T10:26:24.785Z,19.41
2023-05-01T10:28:51.064Z,18.95
2023-05-01T10:31:17.283Z,18.64
2023-05-01T10:33:43.922Z,18.77
2023-05-01T10:36:11.370Z,19.06
2023-05-01T10:38:37.592Z,18.75
2023-05-01T10:41:03.846Z,19.51
2023-05-01T10:43:30.300Z,19.52
2023-05-01T10:46:14.809Z,19.64
2023-05-01T10:48:41.040Z,19.35
2023-05-01T10:51:10.504Z,19.60
2023-05-01T10:53:37.002Z,19.93
2023-05-01T10:56:03.370Z,19.77
2023-05-01T10:58:47.993Z,19.89
2023-05-01T11:01:32.731Z,20.14
2023-05-01T11:03:59.865Z,19.97
2023-05-01T11:06:26.285Z,20.26
2023-05-01T11:08:52.677Z,19.92
2023-05-01T11:11:21.622Z,19.72
2023-05-01T11:13:59.909Z,20.03
2023-05-01T11:16:42.465Z,20.15
2023-05-01T11:19:11.764Z,20.12
2023-05-01T11:21:38.457Z,20.13
2023-05-01T11:24:05.007Z,20.24
2023-05-01T11:26:32.487Z,20.32
2023-05-01T11:28:59.262Z,19.74
2023-05-01T11:31:25.670Z,19.65
2023-05-01T11:33:52.300Z,19.98
2023-05-01T11:36:18.719Z,20.01
2023-05-01T11:38:54.631Z,19.86
2023-05-01T11:41:20.848Z,20.18
2023-05-01T11:43:59.289Z,20.14
2023-05-01T11:46:25.893Z,20.02
2023-05-01T11:48:52.228Z,19.52
2023-05-01T11:51:18.438Z,19.27
2023-05-01T11:53:58.271Z,19.38
2023-05-01T11:56:27.024Z,19.40
2023-05-01T11:58:57.381Z,19.27
2023-05-01T12:01:33.187Z,19.37
2023-05-01T12:03:59.509Z,19.54
2023-05-01T12:06:35.063Z,19.74
2023-05-01T12:09:01.281Z,19.90
2023-05-01T12:11:27.470Z,19.86
2023-05-01T12:13:53.707Z,19.81
2023-05-01T12:16:19.945Z,19.54
2023-05-01T12:18:46.177Z,19.46
2023-05-01T12:21:15.566Z,19.11
2023-05-01T12:23:41.779Z,18.46
2023-05-01T12:26:20.640Z,18.75
2023-05-01T12:28:56.348Z,18.99
2023-05-01T12:31:22.697Z,18.83
2023-05-01T12:33:58.637Z,18.97
2023-05-01T12:36:26.556Z,19.50
2023-05-01T12:38:59.456Z,19.75
2023-05-01T12:41:37.860Z,19.67
2023-05-01T12:44:22.472Z,19.50
2023-05-01T12:47:02.112Z,19.52
2023-05-01T12:49:28.519Z,19.20
2023-05-01T12:51:55.379Z,19.51
2023-05-01T12:54:26.872Z,19.71
2023-05-01T12:56:53.094Z,19.92
2023-05-01T12:59:26.772Z,19.77
2023-05-01T13:02:11.868Z,19.63
2023-05-01T13:04:38.291Z,19.12
2023-05-01T13:07:11.664Z,19.32
2023-05-01T13:09:37.937Z,19.09
2023-05-01T13:12:04.591Z,18.91
2023-05-01T13:14:37.171Z,19.17
2023-05-01T13:17:03.368Z,19.03
2023-05-01T13:19:29.733Z,18.97
2023-05-01T13:21:56.297Z,18.85
2023-05-01T13:24:22.526Z,18.74
2023-05-01T13:26:48.829Z,19.04
2023-05-01T13:29:15.365Z,19.18
2023-05-01T13:31:44.981Z,19.50
2023-05-01T13:34:11.235Z,19.49
2023-05-01T13:36:37.447Z,19.17
2023-05-01T13:39:04.080Z,18.99
2023-05-01T13:41:30.293Z,19.35
2023-05-01T13:43:56.710Z,19.69
2023-05-01T13:46:23.922Z,19.83
2023-05-01T13:48:50.588Z,19.67
2023-05-01T13:51:23.466Z,19.54
2023-05-01T13:53:49.691Z,19.54
2023-05-01T13:56:15.891Z,19.59
2023-05-01T13:58:42.136Z,19.43
2023-05-01T14:01:15.237Z,19.83
2023-05-01T14:03:41.681Z,19.74
2023-05-01T14:06:12.125Z,19.80
2023-05-01T14:08:38.385Z,19.52
2023-05-01T14:11:05.436Z,19.59
2023-05-01T14:13:31.662Z,19.55
2023-05-01T14:15:57.863Z,19.60
2023-05-01T14:18:24.111Z,19.54
2023-05-01T14:20:50.363Z,19.66
2023-05-01T14:23:16.582Z,19.61
2023-05-01T14:25:44.006Z,19.40
2023-05-01T14:28:10.211Z,18.84
2023-05-01T14:30:36.832Z,18.93
2023-05-01T14:33:03.536Z,18.78
2023-05-01T14:35:29.897Z,19.02
2023-05-01T14:37:56.129Z,19.03
2023-05-01T14:40:25.802Z,19.22
2023-05-01T14:42:52.689Z,19.25
2023-05-01T14:45:18.957Z,19.27
2023-05-01T14:47:48.599Z,18.79
2023-05-01T14:50:18.472Z,18.65
2023-05-01T14:52:44.665Z,18.76
2023-05-01T14:55:22.482Z,18.65
2023-05-01T14:57:48.686Z,18.52
2023-05-01T15:00:15.147Z,18.41
2023-05-01T15:02:41.504Z,18.41
2023-05-01T15:05:07.879Z,18.20
2023-05-01T15:07:34.093Z,18.35
2023-05-01T15:10:00.482Z,18.39
2023-05-01T15:12:28.916Z,18.32
2023-05-01T15:14:55.146Z,18.55
2023-05-01T15:17:21.420Z,18.68
2023-05-01T15:19:47.659Z,18.63
2023-05-01T15:22:13.881Z,18.49
2023-05-01T15:24:40.133Z,18.32
2023-05-01T15:27:06.371Z,18.38
2023-05-01T15:29:32.585Z,18.42
2023-05-01T15:32:08.533Z,18.41
2023-05-01T15:34:37.957Z,18.40
2023-05-01T15:37:04.187Z,18.18
2023-05-01T15:39:30.990Z,18.03
2023-05-01T15:41:57.196Z,18.03
2023-05-01T15:44:23.410Z,17.91
2023-05-01T15:46:49.716Z,17.75
2023-05-01T15:49:15.989Z,17.72
2023-05-01T15:51:42.186Z,17.64
2023-05-01T15:54:08.402Z,17.53
2023-05-01T15:56:35.190Z,17.56
2023-05-01T15:59:01.871Z,17.52
2023-05-01T16:01:28.090Z,17.46
2023-05-01T16:03:54.624Z,17.39
2023-05-01T16:06:21.209Z,17.44
2023-05-01T16:08:47.469Z,17.40
2023-05-01T16:11:13.678Z,17.30
2023-05-01T16:13:40.119Z,17.24
2023-05-01T16:16:09.383Z,17.08
2023-05-01T16:18:35.614Z,17.07
2023-05-01T16:21:01.823Z,17.10
2023-05-01T16:23:28.041Z,17.04
2023-05-01T16:25:54.250Z,16.92
2023-05-01T16:28:20.489Z,16.82
2023-05-01T16:30:47.416Z,16.68
2023-05-01T16:33:18.807Z,16.68
2023-05-01T16:35:46.440Z,16.78
2023-05-01T16:38:12.658Z,16.84
2023-05-01T16:40:38.877Z,16.86
2023-05-01T16:43:05.105Z,16.90
2023-05-01T16:45:31.415Z,16.84
2023-05-01T16:47:57.938Z,16.72
2023-05-01T16:50:24.243Z,16.63
2023-05-01T16:52:50.775Z,16.63
2023-05-01T16:55:16.991Z,16.58
2023-05-01T16:57:44.525Z,16.57
2023-05-01T17:00:10.984Z,16.58
2023-05-01T17:02:37.977Z,16.57
2023-05-01T17:05:04.340Z,16.54
2023-05-01T17:07:30.625Z,16.51
2023-05-01T17:09:56.972Z,16.45
2023-05-01T17:12:23.285Z,16.43
2023-05-01T17:14:49.517Z,16.34
2023-05-01T17:17:15.724Z,16.30
2023-05-01T17:19:41.961Z,16.24
2023-05-01T17:22:08.177Z,16.16
2023-05-01T17:24:37.385Z,16.13
2023-05-01T17:27:03.604Z,16.06
2023-05-01T17:29:29.862Z,15.97
2023-05-01T17:31:56.140Z,15.93
2023-05-01T17:34:22.400Z,15.80
2023-05-01T17:36:48.654Z,15.71
2023-05-01T17:39:14.902Z,15.81
2023-05-01T17:41:41.124Z,15.79
2023-05-01T17:44:07.343Z,15.72
2023-05-01T17:46:33.639Z,15.54
2023-05-01T17:48:59.898Z,15.28
2023-05-01T17:51:26.122Z,15.39
2023-05-01T17:53:52.701Z,15.40
2023-05-01T17:56:19.286Z,15.24
2023-05-01T17:58:45.762Z,15.41
2023-05-01T18:01:12.057Z,15.31
2023-05-01T18:03:38.446Z,15.29
2023-05-01T18:06:04.762Z,15.21
2023-05-01T18:08:31.029Z,15.02
2023-05-01T18:10:57.292Z,14.81
2023-05-01T18:13:23.555Z,14.60
2023-05-01T18:15:51.858Z,14.50
2023-05-01T18:18:18.377Z,14.46
2023-05-01T18:20:44.622Z,14.47
2023-05-01T18:23:10.827Z,14.40
2023-05-01T18:25:37.066Z,14.34
2023-05-01T18:28:03.282Z,14.30
2023-05-01T18:30:29.519Z,14.21
2023-05-01T18:32:55.793Z,14.18
2023-05-01T18:35:22.034Z,14.06
2023-05-01T18:37:48.273Z,13.98
2023-05-01T18:40:14.510Z,13.98
2023-05-01T18:42:41.019Z,13.63
2023-05-01T18:45:07.467Z,13.38
2023-05-01T18:47:33.732Z,13.37
2023-05-01T18:50:00.188Z,12.89
2023-05-01T18:52:26.528Z,12.56
2023-05-01T18:54:52.753Z,12.68
2023-05-01T18:57:18.990Z,12.34
2023-05-01T18:59:45.299Z,11.96
2023-05-01T19:02:11.575Z,11.28
2023-05-01T19:04:49.197Z,12.15
2023-05-01T19:07:22.678Z,12.62
2023-05-01T19:09:48.905Z,13.06
2023-05-01T19:12:15.110Z,13.32
2023-05-01T19:14:41.329Z,13.32
2023-05-01T19:17:07.534Z,13.34
2023-05-01T19:19:33.736Z,13.30
2023-05-01T19:21:59.925Z,12.97
2023-05-01T19:24:26.135Z,13.07
2023-05-01T19:26:52.348Z,12.94
2023-05-01T19:29:18.661Z,13.00
2023-05-01T19:31:44.896Z,12.95
2023-05-01T19:34:11.537Z,12.97
2023-05-01T19:36:37.750Z,12.44
2023-05-01T19:39:03.978Z,12.56
2023-05-01T19:41:30.182Z,12.68
2023-05-01T19:43:56.387Z,12.65
2023-05-01T19:46:22.732Z,12.46
2023-05-01T19:48:48.998Z,12.60
2023-05-01T19:51:15.215Z,12.70
2023-05-01T19:53:41.432Z,12.63
2023-05-01T19:56:07.649Z,12.34
2023-05-01T19:58:33.874Z,12.42
2023-05-01T20:01:00.197Z,12.55
2023-05-01T20:03:26.663Z,12.52
2023-05-01T20:05:53.030Z,12.12
2023-05-01T20:08:19.268Z,12.22
2023-05-01T20:10:45.475Z,12.12
2023-05-01T20:13:11.678Z,12.05
2023-05-01T20:15:38.906Z,12.23
2023-05-01T20:18:05.290Z,12.35
2023-05-01T20:20:31.545Z,12.32
2023-05-01T20:23:13.401Z,12.34
2023-05-01T20:25:39.670Z,12.48
2023-05-01T20:28:06.111Z,12.54
2023-05-01T20:30:32.331Z,12.24
2023-05-01T20:32:58.605Z,12.35
2023-05-01T20:35:24.869Z,12.38
2023-05-01T20:37:51.068Z,12.15
2023-05-01T20:40:19.088Z,12.11
2023-05-01T20:42:45.294Z,12.04
2023-05-01T20:45:11.522Z,11.72
2023-05-01T20:47:37.780Z,11.60
2023-05-01T20:50:04.112Z,11.81
2023-05-01T20:52:30.321Z,11.44
2023-05-01T20:54:56.548Z,11.63
2023-05-01T20:57:22.764Z,11.11
2023-05-01T20:59:49.175Z,11.40
2023-05-01T21:02:15.733Z,11.53
2023-05-01T21:04:42.225Z,11.73
2023-05-01T21:07:08.760Z,11.64
2023-05-01T21:09:35.056Z,11.22
2023-05-01T21:12:03.250Z,10.86
2023-05-01T21:14:29.466Z,11.09
2023-05-01T21:16:55.691Z,11.23
2023-05-01T21:19:21.910Z,11.36
2023-05-01T21:21:48.114Z,11.30
2023-05-01T21:24:16.465Z,11.24
2023-05-01T21:26:42.671Z,11.23
2023-05-01T21:29:09.240Z,11.29
2023-05-01T21:31:35.507Z,11.25
2023-05-01T21:34:01.735Z,11.18
2023-05-01T21:36:27.945Z,11.22
2023-05-01T21:38:54.323Z,11.22
2023-05-01T21:41:20.526Z,11.31
2023-05-01T21:43:46.724Z,11.31
2023-05-01T21:46:14.363Z,11.40
2023-05-01T21:48:40.558Z,11.35
2023-05-01T21:51:06.785Z,11.23
2023-05-01T21:53:32.985Z,11.17
2023-05-01T21:56:00.239Z,11.09
2023-05-01T21:58:27.404Z,11.02
2023-05-01T22:00:53.661Z,11.02
2023-05-01T22:03:20.111Z,11.05
2023-05-01T22:05:46.409Z,11.02
2023-05-01T22:08:12.624Z,10.94
2023-05-01T22:10:38.849Z,10.92
2023-05-01T22:13:05.061Z,10.87
2023-05-01T22:15:31.280Z,10.76
2023-05-01T22:17:57.583Z,10.68
2023-05-01T22:20:23.816Z,10.68
2023-05-01T22:22:50.087Z,10.71
2023-05-01T22:25:16.303Z,10.76
2023-05-01T22:27:42.546Z,10.80
2023-05-01T22:30:08.903Z,10.81
2023-05-01T22:32:35.150Z,10.76
2023-05-01T22:35:01.416Z,10.72
2023-05-01T22:37:27.643Z,10.66
2023-05-01T22:39:53.901Z,10.73
2023-05-01T22:42:20.174Z,10.59
2023-05-01T22:44:46.391Z,10.48
2023-05-01T22:47:12.590Z,10.52
2023-05-01T22:49:38.807Z,10.39
2023-05-01T22:52:05.053Z,10.37
2023-05-01T22:54:31.268Z,10.24
2023-05-01T22:56:57.474Z,10.43
2023-05-01T22:59:23.707Z,10.39
2023-05-01T23:01:49.983Z,10.37
2023-05-01T23:04:16.486Z,10.39
2023-05-01T23:06:42.928Z,10.50
2023-05-01T23:09:09.149Z,10.36
2023-05-01T23:11:35.413Z,10.35
2023-05-01T23:14:01.636Z,10.31
2023-05-01T23:16:35.975Z,10.38
2023-05-01T23:19:02.335Z,10.40
2023-05-01T23:21:28.538Z,10.46
2023-05-01T23:23:54.758Z,10.34
2023-05-01T23:26:25.013Z,10.32
2023-05-01T23:28:51.235Z,10.35
2023-05-01T23:31:17.907Z,10.17
2023-05-01T23:33:44.208Z,10.20
2023-05-01T23:36:10.418Z,10.23
2023-05-01T23:38:36.619Z,10.17
2023-05-01T23:41:03.239Z,10.22
2023-05-01T23:43:29.446Z,10.17
2023-05-01T23:45:55.668Z,10.11
2023-05-01T23:48:21.888Z,10.06
2023-05-01T23:50:48.124Z,10.19
2023-05-01T23:53:14.322Z,10.37
2023-05-01T23:55:40.562Z,10.37
2023-05-01T23:58:06.764Z,10.44
